createdAt,value
2023-09-10T00:02:03.356Z,20.49
2023-09-10T00:07:11.617Z,20.52
2023-09-10T00:12:17.310Z,20.52
2023-09-10T00:17:22.991Z,20.55
2023-09-10T00:22:29.949Z,20.59
2023-09-10T00:27:35.698Z,20.62
2023-09-10T00:32:41.376Z,20.61
2023-09-10T00:37:47.584Z,20.63
2023-09-10T00:42:53.288Z,20.67
2023-09-10T00:47:59.166Z,20.70
2023-09-10T00:53:05.894Z,20.73
2023-09-10T00:58:16.032Z,20.85
2023-09-10T01:03:28.682Z,20.89
2023-09-10T01:08:39.020Z,20.92
2023-09-10T01:14:20.279Z,20.93
2023-09-10T01:19:50.067Z,20.96
2023-09-10T01:25:01.013Z,21.03
2023-09-10T01:30:07.042Z,21.11
2023-09-10T01:35:18.337Z,21.22
2023-09-10T01:40:29.828Z,21.23
2023-09-10T01:45:39.117Z,21.31
2023-09-10T01:50:46.870Z,21.34
2023-09-10T01:56:05.520Z,21.40
2023-09-10T02:01:21.757Z,21.46
2023-09-10T02:06:27.823Z,21.53
2023-09-10T02:11:33.643Z,21.61
2023-09-10T02:16:41.779Z,21.67
2023-09-10T02:21:47.706Z,21.71
2023-09-10T02:26:53.790Z,21.80
2023-09-10T02:31:59.226Z,21.85
2023-09-10T02:37:05.474Z,21.94
2023-09-10T02:42:11.923Z,22.04
2023-09-10T02:47:18.569Z,22.13
2023-09-10T02:53:33.492Z,22.21
2023-09-10T02:59:00.109Z,22.28
2023-09-10T03:04:11.525Z,22.28
2023-09-10T03:09:25.853Z,22.32
2023-09-10T03:14:30.933Z,22.37
2023-09-10T03:19:38.029Z,22.41
2023-09-10T03:24:43.368Z,22.45
2023-09-10T03:29:48.949Z,22.50
2023-09-10T03:34:54.558Z,22.57
2023-09-10T03:40:00.055Z,22.64
2023-09-10T03:45:05.484Z,22.63
2023-09-10T03:50:14.187Z,22.64
2023-09-10T03:55:19.472Z,22.67
2023-09-10T04:00:25.960Z,22.68
2023-09-10T04:05:31.607Z,22.75
2023-09-10T04:10:36.845Z,22.77
2023-09-10T04:15:42.628Z,22.81
2023-09-10T04:20:49.702Z,22.85
2023-09-10T04:25:54.943Z,22.90
2023-09-10T04:31:00.659Z,22.94
2023-09-10T04:36:07.339Z,23.06
2023-09-10T04:41:14.357Z,23.10
2023-09-10T04:46:21.561Z,23.12
2023-09-10T04:51:27.593Z,23.18
2023-09-10T04:56:33.319Z,23.25
2023-09-10T05:01:39.755Z,23.32
2023-09-10T05:06:47.555Z,23.40
2023-09-10T05:11:54.105Z,23.46
2023-09-10T05:17:02.368Z,23.49
2023-09-10T05:22:07.892Z,23.44
2023-09-10T05:27:16.305Z,23.39
2023-09-10T05:32:21.725Z,23.36
2023-09-10T05:37:27.332Z,23.30
2023-09-10T05:42:35.769Z,23.25
2023-09-10T05:47:41.227Z,23.20
2023-09-10T05:52:48.154Z,23.15
2023-09-10T05:57:57.823Z,23.13
2023-09-10T06:03:03.500Z,23.10
2023-09-10T06:08:09.208Z,23.08
2023-09-10T06:13:17.682Z,23.04
2023-09-10T06:18:24.301Z,23.01
2023-09-10T06:23:29.575Z,22.99
2023-09-10T06:28:36.907Z,22.99
2023-09-10T06:33:43.124Z,23.01
2023-09-10T06:38:50.464Z,23.06
2023-09-10T06:44:00.534Z,23.12
2023-09-10T06:49:24.893Z,23.14
2023-09-10T06:55:00.870Z,23.16
2023-09-10T07:00:10.517Z,23.19
2023-09-10T07:05:17.892Z,23.19
2023-09-10T07:29:45.339Z,23.20
2023-09-10T07:34:55.375Z,23.23
2023-09-10T07:40:00.679Z,23.23
2023-09-10T07:45:08.064Z,23.21
2023-09-10T07:50:15.008Z,23.20
2023-09-10T07:55:20.143Z,23.19
2023-09-10T08:00:27.709Z,23.16
2023-09-10T08:05:33.844Z,23.15
2023-09-10T08:10:39.966Z,23.14
2023-09-10T08:15:47.786Z,23.12
2023-09-10T08:20:54.665Z,23.08
2023-09-10T08:26:05.865Z,23.08
2023-09-10T08:31:13.987Z,23.08
2023-09-10T08:36:38.808Z,23.11
2023-09-10T08:42:00.840Z,23.10
2023-09-10T08:47:08.602Z,23.08
2023-09-10T08:52:15.520Z,23.04
2023-09-10T08:57:21.921Z,23.05
2023-09-10T09:02:29.448Z,23.04
2023-09-10T09:07:46.423Z,23.05
2023-09-10T09:13:00.573Z,23.04
2023-09-10T09:18:06.490Z,23.04
2023-09-10T09:23:48.045Z,23.04
2023-09-10T09:28:55.711Z,23.00
2023-09-10T09:34:01.370Z,22.99
2023-09-10T09:39:11.243Z,23.00
2023-09-10T09:44:18.371Z,22.96
2023-09-10T09:49:24.443Z,22.95
2023-09-10T09:54:31.149Z,22.93
2023-09-10T09:59:42.382Z,22.91
2023-09-10T10:04:52.897Z,22.90
2023-09-10T10:10:01.525Z,22.88
2023-09-10T10:15:10.232Z,22.87
2023-09-10T10:20:17.732Z,22.86
2023-09-10T10:25:24.798Z,22.85
2023-09-10T10:30:33.592Z,22.85
2023-09-10T10:35:46.039Z,22.84
2023-09-10T10:40:56.489Z,22.83
2023-09-10T10:46:05.784Z,22.81
2023-09-10T10:51:15.173Z,22.79
2023-09-10T10:56:22.225Z,22.78
2023-09-10T11:01:32.675Z,22.73
2023-09-10T11:06:58.258Z,22.73
2023-09-10T11:12:09.688Z,22.72
2023-09-10T11:17:29.750Z,22.70
2023-09-10T11:23:11.360Z,22.68
2023-09-10T11:29:13.697Z,22.67
2023-09-10T11:34:26.122Z,22.67
2023-09-10T11:39:34.415Z,22.65
2023-09-10T11:44:39.861Z,22.66
2023-09-10T11:49:46.144Z,22.65
2023-09-10T11:54:52.412Z,22.65
2023-09-10T12:00:08.482Z,22.63
2023-09-10T12:05:20.391Z,22.64
2023-09-10T12:10:24.933Z,22.64
2023-09-10T12:15:32.059Z,22.62
2023-09-10T12:20:39.065Z,22.62
2023-09-10T12:25:46.298Z,22.63
2023-09-10T12:30:52.645Z,22.63
2023-09-10T12:35:59.125Z,22.63
2023-09-10T12:41:04.437Z,22.62
2023-09-10T12:46:10.995Z,22.63
2023-09-10T12:51:16.686Z,22.62
2023-09-10T12:56:22.145Z,22.60
2023-09-10T13:01:28.462Z,22.61
2023-09-10T13:06:40.446Z,22.59
2023-09-10T13:11:49.399Z,22.60
2023-09-10T13:16:55.427Z,22.59
2023-09-10T13:22:01.629Z,22.58
2023-09-10T13:27:06.919Z,22.58
2023-09-10T13:32:11.382Z,22.58
2023-09-10T13:37:16.690Z,22.58
2023-09-10T13:42:24.310Z,22.59
2023-09-10T13:47:31.112Z,22.57
2023-09-10T13:52:36.399Z,22.55
2023-09-10T13:57:42.826Z,22.54
2023-09-10T14:02:50.949Z,22.53
2023-09-10T14:07:56.216Z,22.53
2023-09-10T14:13:02.532Z,22.53
2023-09-10T14:18:09.011Z,22.54
2023-09-10T14:23:17.268Z,22.53
2023-09-10T14:28:27.037Z,22.54
2023-09-10T14:33:34.212Z,22.52
2023-09-10T14:38:39.642Z,22.52
2023-09-10T14:43:44.929Z,22.51
2023-09-10T14:48:50.255Z,22.51
2023-09-10T14:53:55.493Z,22.51
2023-09-10T14:59:00.874Z,22.53
2023-09-10T15:04:10.773Z,22.51
2023-09-10T15:09:16.934Z,22.50
2023-09-10T15:14:22.020Z,22.51
2023-09-10T15:19:29.658Z,22.49
2023-09-10T15:24:39.010Z,22.47
2023-09-10T15:29:44.347Z,22.48
2023-09-10T15:34:49.356Z,22.48
2023-09-10T15:39:54.423Z,22.48
2023-09-10T15:44:59.912Z,22.48
2023-09-10T15:50:05.617Z,22.46
2023-09-10T15:55:11.553Z,22.46
2023-09-10T16:00:19.414Z,22.45
2023-09-10T16:05:25.976Z,22.44
2023-09-10T16:10:31.778Z,22.45
2023-09-10T16:15:36.787Z,22.42
2023-09-10T16:20:42.124Z,22.44
2023-09-10T16:25:48.930Z,22.42
2023-09-10T16:30:54.533Z,22.41
2023-09-10T16:35:59.568Z,22.39
2023-09-10T16:41:05.300Z,22.38
2023-09-10T16:46:13.874Z,22.39
2023-09-10T16:51:20.959Z,22.37
2023-09-10T16:56:29.302Z,22.38
2023-09-10T17:01:39.265Z,22.39
2023-09-10T17:06:47.732Z,22.36
2023-09-10T17:11:53.996Z,22.36
2023-09-10T17:16:58.936Z,22.35
2023-09-10T17:22:03.880Z,22.33
2023-09-10T17:27:10.487Z,22.28
2023-09-10T17:32:18.006Z,22.29
2023-09-10T17:37:26.935Z,22.30
2023-09-10T17:42:34.325Z,22.30
2023-09-10T17:47:41.779Z,22.29
2023-09-10T17:52:46.801Z,22.29
2023-09-10T17:57:52.962Z,22.30
2023-09-10T18:02:58.151Z,22.39
2023-09-10T18:08:05.026Z,22.41
2023-09-10T18:13:11.231Z,22.38
2023-09-10T18:18:18.544Z,22.36
2023-09-10T18:23:23.409Z,22.35
2023-09-10T18:28:29.549Z,22.34
2023-09-10T18:33:41.318Z,22.33
2023-09-10T18:38:57.311Z,22.31
2023-09-10T18:44:02.189Z,22.29
2023-09-10T18:49:08.421Z,22.30
2023-09-10T18:54:13.600Z,22.30
2023-09-10T18:59:20.140Z,22.28
2023-09-10T19:04:26.920Z,22.26
2023-09-10T19:09:34.040Z,22.26
2023-09-10T19:14:38.978Z,22.25
2023-09-10T19:19:43.456Z,22.25
2023-09-10T19:24:48.224Z,22.21
2023-09-10T19:29:57.536Z,22.21
2023-09-10T19:35:02.608Z,22.20
2023-09-10T19:40:07.854Z,22.19
2023-09-10T19:45:19.576Z,22.17
2023-09-10T19:50:25.775Z,22.16
2023-09-10T19:55:31.475Z,22.18
2023-09-10T20:00:36.507Z,22.17
2023-09-10T20:05:45.769Z,22.18
2023-09-10T20:10:50.832Z,22.14
2023-09-10T20:15:56.975Z,22.13
2023-09-10T20:21:01.853Z,22.15
2023-09-10T20:26:07.910Z,22.13
2023-09-10T20:31:12.925Z,22.13
2023-09-10T20:36:18.143Z,22.14
2023-09-10T20:41:24.955Z,22.13
2023-09-10T20:46:32.050Z,22.13
2023-09-10T20:51:39.077Z,22.13
2023-09-10T20:56:48.904Z,22.13
2023-09-10T21:01:54.218Z,22.13
2023-09-10T21:06:59.701Z,22.15
2023-09-10T21:12:05.220Z,22.15
2023-09-10T21:17:15.615Z,22.14
2023-09-10T21:22:22.941Z,22.15
2023-09-10T21:27:29.411Z,22.09
2023-09-10T21:32:35.664Z,22.09
2023-09-10T21:37:42.552Z,22.09
2023-09-10T21:42:48.249Z,22.08
2023-09-10T21:47:54.656Z,22.08
2023-09-10T21:53:00.382Z,22.05
2023-09-10T21:58:13.984Z,22.02
2023-09-10T22:03:21.239Z,22.00
2023-09-10T22:08:28.497Z,21.98
2023-09-10T22:13:34.802Z,21.94
2023-09-10T22:18:40.653Z,21.92
2023-09-10T22:23:48.625Z,21.99
2023-09-10T22:28:54.375Z,21.98
2023-09-10T22:34:00.824Z,21.98
2023-09-10T22:39:08.964Z,21.98
2023-09-10T22:44:14.712Z,21.99
2023-09-10T22:49:21.228Z,22.01
2023-09-10T22:54:28.773Z,22.03
2023-09-10T22:59:34.661Z,22.06
2023-09-10T23:04:39.986Z,22.08
2023-09-10T23:09:45.987Z,22.13
2023-09-10T23:14:54.378Z,22.19
2023-09-10T23:20:02.526Z,22.25
2023-09-10T23:25:07.634Z,22.31
2023-09-10T23:30:16.317Z,22.33
2023-09-10T23:35:22.908Z,22.36
2023-09-10T23:40:28.190Z,22.42
2023-09-10T23:45:35.102Z,22.46
2023-09-10T23:50:40.792Z,22.52
2023-09-10T23:55:46.385Z,22.59
